Time;durP1;ratioP1;P1;durP2;ratioP2;P2;SDS_P1;SDS_P2;PMS_P1;PMS_P2;Temp;Humidity;BMP_temperature;BMP_pressure;BME280_temperature;BME280_humidity;BME280_pressure;Samples;Min_cycle;Max_cycle;Signal;HPM_P1;HPM_P2
2022/01/15 00:00:08;;;;;;;24.43;10.60;;;;;;;-4.30;100.00;100504.69;5114776;28;20057;-85
2022/01/15 00:02:42;;;;;;;22.20;10.17;;;;;;;-4.34;100.00;100500.41;5109304;27;20071;-85
2022/01/15 00:05:10;;;;;;;23.77;9.67;;;;;;;-4.45;100.00;100479.56;5115280;28;20048;-85
2022/01/15 00:07:47;;;;;;;18.83;9.10;;;;;;;-4.62;100.00;100480.19;5113670;27;20051;-84
2022/01/15 00:10:14;;;;;;;20.00;9.53;;;;;;;-4.59;100.00;100478.34;5114859;28;20062;-85
2022/01/15 00:12:45;;;;;;;18.83;9.03;;;;;;;-4.63;100.00;100486.41;5113426;27;20473;-84
2022/01/15 00:15:21;;;;;;;17.57;8.53;;;;;;;-4.74;100.00;100469.16;5114810;28;20480;-84
2022/01/15 00:17:52;;;;;;;19.23;9.00;;;;;;;-4.64;100.00;100486.47;5114934;27;20048;-85
2022/01/15 00:20:20;;;;;;;22.47;9.73;;;;;;;-4.75;100.00;100473.59;5121245;27;20543;-84
2022/01/15 00:22:48;;;;;;;20.07;9.30;;;;;;;-4.74;100.00;100471.81;5115786;27;20139;-85
2022/01/15 00:25:16;;;;;;;17.17;9.60;;;;;;;-4.78;100.00;100481.69;5105552;28;20066;-84
2022/01/15 00:27:44;;;;;;;20.00;8.67;;;;;;;-4.80;100.00;100478.22;5114976;28;20426;-84
2022/01/15 00:30:13;;;;;;;17.77;9.10;;;;;;;-4.87;100.00;100464.28;5114620;28;20483;-84
2022/01/15 00:32:40;;;;;;;21.10;10.97;;;;;;;-4.72;100.00;100476.16;5114687;28;20051;-84
2022/01/15 00:35:10;;;;;;;28.00;11.50;;;;;;;-4.77;100.00;100458.66;5117682;27;20050;-85
2022/01/15 00:37:38;;;;;;;20.70;11.15;;;;;;;-4.77;100.00;100463.97;5114315;28;20050;-85
2022/01/15 00:40:07;;;;;;;23.90;11.57;;;;;;;-4.77;100.00;100478.13;5122063;27;20096;-85
2022/01/15 00:42:36;;;;;;;;;;;;;;;-4.68;100.00;100496.34;5114267;28;20142;-85
2022/01/15 00:45:08;;;;;;;28.03;11.53;;;;;;;-4.81;100.00;100466.72;5115450;27;19973;-84
2022/01/15 00:47:35;;;;;;;20.43;11.37;;;;;;;-4.70;100.00;100490.22;5110984;28;20047;-84
2022/01/15 00:50:07;;;;;;;22.17;11.30;;;;;;;-4.80;100.00;100486.19;5114152;27;20057;-85
2022/01/15 00:52:36;;;;;;;18.40;10.07;;;;;;;-4.79;100.00;100485.25;5110884;28;20043;-84
2022/01/15 00:55:10;;;;;;;22.20;10.40;;;;;;;-4.92;100.00;100468.91;5114440;28;20399;-84
2022/01/15 00:57:37;;;;;;;22.10;10.13;;;;;;;-4.87;100.00;100469.59;5113723;27;20502;-84
2022/01/15 01:00:09;;;;;;;19.97;10.23;;;;;;;-4.81;100.00;100465.88;5114054;28;20050;-85
2022/01/15 01:02:36;;;;;;;24.57;9.53;;;;;;;-4.92;100.00;100454.75;5126307;27;20057;-85
2022/01/15 01:05:06;;;;;;;26.23;11.83;;;;;;;-4.95;100.00;100462.81;5114657;28;20044;-85
2022/01/15 01:07:35;;;;;;;23.13;10.50;;;;;;;-4.86;100.00;100465.19;5114465;28;20047;-85
2022/01/15 01:10:21;;;;;;;20.77;9.68;;;;;;;-4.81;100.00;100481.78;5113178;28;20048;-85
2022/01/15 01:13:11;;;;;;;19.80;9.50;;;;;;;-4.88;100.00;100461.69;5114260;27;20051;-85
2022/01/15 01:21:35;;;;;;;27.40;11.90;;;;;;;-4.99;100.00;100436.41;5117876;27;20054;-85
2022/01/15 01:24:04;;;;;;;20.90;9.93;;;;;;;-4.98;100.00;100450.56;5114665;28;20097;-85
2022/01/15 01:26:38;;;;;;;16.25;8.82;;;;;;;-4.98;100.00;100456.72;5115197;28;20089;-85
2022/01/15 01:29:16;;;;;;;18.67;9.53;;;;;;;-5.09;100.00;100447.41;5115431;28;20043;-85
2022/01/15 01:31:58;;;;;;;19.07;9.17;;;;;;;-5.10;100.00;100441.25;5115307;28;20128;-85
2022/01/15 01:34:28;;;;;;;14.33;8.10;;;;;;;-5.00;100.00;100453.28;5115587;27;20100;-85
2022/01/15 01:37:01;;;;;;;17.98;9.57;;;;;;;-4.95;100.00;100474.31;5114599;28;20039;-85
2022/01/15 01:39:39;;;;;;;19.57;10.03;;;;;;;-5.04;100.00;100443.69;5114735;28;20052;-84
2022/01/15 01:42:13;;;;;;;24.60;10.80;;;;;;;-5.10;100.00;100428.00;5115283;28;20116;-84
2022/01/15 01:44:58;;;;;;;22.03;9.33;;;;;;;-5.04;100.00;100446.34;5124118;27;20047;-85
2022/01/15 01:47:38;;;;;;;18.37;9.30;;;;;;;-5.09;100.00;100450.06;5114046;28;20071;-85
2022/01/15 01:50:12;;;;;;;21.30;10.57;;;;;;;-5.11;100.00;100454.56;5113655;28;20401;-85
2022/01/15 01:52:40;;;;;;;18.23;9.23;;;;;;;-5.02;100.00;100455.09;5113376;28;20486;-85
2022/01/15 01:55:11;;;;;;;17.70;9.80;;;;;;;-5.14;100.00;100444.94;5112264;27;20046;-85
2022/01/15 01:57:39;;;;;;;22.33;9.43;;;;;;;-5.13;100.00;100429.88;5113923;28;20043;-85
2022/01/15 02:00:09;;;;;;;21.17;12.03;;;;;;;-5.12;100.00;100421.00;5113804;28;20048;-85
2022/01/15 02:02:38;;;;;;;26.07;11.63;;;;;;;-4.85;100.00;100453.63;5113571;28;20082;-85
2022/01/15 02:05:06;;;;;;;16.77;9.50;;;;;;;-4.96;100.00;100448.72;5113855;28;20067;-85
2022/01/15 02:07:33;;;;;;;18.63;9.57;;;;;;;-5.08;100.00;100442.06;5113621;28;20142;-85
2022/01/15 02:10:00;;;;;;;21.67;10.53;;;;;;;-5.12;100.00;100440.41;5113692;27;20134;-85
2022/01/15 02:12:27;;;;;;;19.90;9.47;;;;;;;-5.13;100.00;100437.81;5112485;28;20050;-85
2022/01/15 02:14:56;;;;;;;18.40;8.97;;;;;;;-5.22;100.00;100445.19;5113291;28;20414;-84
2022/01/15 02:17:23;;;;;;;25.30;9.80;;;;;;;-5.15;100.00;100440.53;5113734;28;20429;-85
2022/01/15 02:20:10;;;;;;;17.37;9.07;;;;;;;-5.10;100.00;100451.88;5113248;28;20067;-84
2022/01/15 02:25:22;;;;;;;18.23;9.23;;;;;;;-5.24;100.00;100431.13;5117137;28;20146;-84
2022/01/15 02:27:49;;;;;;;18.63;10.27;;;;;;;-5.20;100.00;100435.38;5116497;27;20067;-84
2022/01/15 02:30:17;;;;;;;19.70;10.50;;;;;;;-5.30;100.00;100422.53;5113390;28;20051;-83
2022/01/15 02:32:44;;;;;;;21.67;9.53;;;;;;;-5.25;100.00;100426.75;5112716;28;20048;-84
2022/01/15 02:35:18;;;;;;;21.43;10.27;;;;;;;-5.32;100.00;100403.16;5111936;28;20044;-84
2022/01/15 02:37:48;;;;;;;20.60;9.53;;;;;;;-5.23;100.00;100424.91;5113249;28;20097;-84
2022/01/15 02:40:17;;;;;;;23.10;10.35;;;;;;;-5.34;100.00;100403.22;5113512;28;20532;-84
2022/01/15 02:42:44;;;;;;;21.23;10.32;;;;;;;-5.23;100.00;100418.75;5119022;28;20127;-84
2022/01/15 02:45:19;;;;;;;22.03;10.90;;;;;;;-5.30;100.00;100391.56;5112750;28;20051;-84
2022/01/15 02:48:06;;;;;;;18.83;10.70;;;;;;;-5.24;100.00;100407.28;5118318;28;20051;-84
2022/01/15 02:50:35;;;;;;;22.20;10.53;;;;;;;-5.32;100.00;100400.50;5112912;28;20069;-84
2022/01/15 02:53:04;;;;;;;26.00;11.37;;;;;;;-5.38;100.00;100394.47;5113804;28;20444;-84
2022/01/15 02:55:31;;;;;;;23.97;10.73;;;;;;;-5.40;100.00;100388.38;5113057;28;20059;-84
2022/01/15 02:58:02;;;;;;;26.97;10.20;;;;;;;-5.29;100.00;100400.41;5112599;28;20094;-84
2022/01/15 03:00:31;;;;;;;27.13;11.57;;;;;;;-5.31;100.00;100411.06;5107227;28;20517;-84
2022/01/15 03:03:03;;;;;;;21.13;10.20;;;;;;;-5.35;100.00;100404.97;5112317;28;20052;-84
2022/01/15 03:05:30;;;;;;;25.73;11.17;;;;;;;-5.23;100.00;100416.94;5112093;28;20051;-84
2022/01/15 03:07:59;;;;;;;24.23;11.50;;;;;;;-5.34;100.00;100390.81;5112678;28;20127;-84
2022/01/15 03:10:32;;;;;;;40.22;13.02;;;;;;;-5.17;100.00;100394.66;5120414;27;20063;-85
2022/01/15 03:13:11;;;;;;;28.63;12.67;;;;;;;-5.24;100.00;100382.53;5111994;28;20051;-84
2022/01/15 03:15:38;;;;;;;25.43;12.23;;;;;;;-5.34;100.00;100382.88;5112140;28;20399;-84
2022/01/15 03:21:08;;;;;;;23.67;11.67;;;;;;;-5.29;100.00;100405.69;5107893;28;20489;-85
2022/01/15 03:26:39;;;;;;;25.42;12.32;;;;;;;-5.53;100.00;100358.78;5113999;27;20493;-85
2022/01/15 03:29:33;;;;;;;28.13;12.37;;;;;;;-5.51;100.00;100379.94;5117749;28;20135;-85
2022/01/15 03:32:03;;;;;;;22.70;11.37;;;;;;;-5.60;100.00;100353.75;5103923;28;20047;-84
2022/01/15 03:34:29;;;;;;;;;;;;;;;-5.44;100.00;100388.53;5117235;28;20065;-84
2022/01/15 03:37:32;;;;;;;24.20;9.97;;;;;;;-5.61;100.00;100358.19;5117087;28;20018;-85
2022/01/15 03:40:58;;;;;;;;;;;;;;;;;;;;;
2022/01/15 03:43:53;;;;;;;22.80;10.53;;;;;;;-5.37;100.00;100376.81;5116346;28;20047;-85
2022/01/15 03:46:21;;;;;;;28.13;10.83;;;;;;;-5.39;100.00;100358.31;5117017;28;20063;-84
2022/01/15 03:48:54;;;;;;;21.77;12.07;;;;;;;-5.47;100.00;100348.91;5116339;28;20096;-85
2022/01/15 03:54:24;;;;;;;20.73;9.83;;;;;;;-5.52;100.00;100368.47;5115661;28;20485;-84
2022/01/15 03:57:39;;;;;;;23.03;11.53;;;;;;;-5.72;100.00;100349.72;5115176;28;20040;-84
2022/01/15 04:00:18;;;;;;;22.43;10.03;;;;;;;-5.52;100.00;100355.22;5116465;28;20047;-84
2022/01/15 04:02:52;;;;;;;26.27;12.27;;;;;;;-5.64;100.00;100341.56;5116709;28;20100;-84
2022/01/15 04:05:37;;;;;;;21.27;11.70;;;;;;;-5.61;100.00;100350.25;5101873;28;20491;-84
2022/01/15 04:08:45;;;;;;;24.70;10.97;;;;;;;-5.62;100.00;100348.50;5111105;28;20043;-85
2022/01/15 04:11:25;;;;;;;28.10;12.07;;;;;;;-5.39;100.00;100366.28;5049753;28;20053;-84
2022/01/15 04:13:58;;;;;;;24.07;10.23;;;;;;;-5.53;100.00;100355.28;5116597;28;20052;-85
2022/01/15 04:16:32;;;;;;;23.13;10.60;;;;;;;-5.54;100.00;100362.38;5116676;27;20048;-85
2022/01/15 04:19:10;;;;;;;;;;;;;;;;;;;;;
2022/01/15 04:21:41;;;;;;;25.57;11.63;;;;;;;-5.45;100.00;100371.78;5129556;27;20043;-85
2022/01/15 04:24:11;;;;;;;19.27;9.77;;;;;;;-5.55;100.00;100367.72;5114880;28;20051;-85
2022/01/15 04:26:54;;;;;;;22.63;11.17;;;;;;;-5.68;100.00;100346.91;5115176;27;20066;-84
2022/01/15 04:29:23;;;;;;;16.97;9.83;;;;;;;-5.68;100.00;100357.53;5114912;27;20069;-85
2022/01/15 04:31:52;;;;;;;28.13;10.20;;;;;;;-5.61;100.00;100367.94;5117846;27;20051;-84
2022/01/15 04:34:25;;;;;;;21.35;10.85;;;;;;;-5.75;100.00;100347.19;5114392;28;20525;-84
2022/01/15 04:37:00;;;;;;;20.03;10.07;;;;;;;-5.65;100.00;100351.25;5117070;27;20124;-85
2022/01/15 04:39:28;;;;;;;25.73;11.20;;;;;;;-5.64;100.00;100349.50;5113986;28;20059;-84
2022/01/15 04:41:55;;;;;;;23.33;10.87;;;;;;;-5.68;100.00;100335.47;5113781;27;20040;-84
2022/01/15 04:44:26;;;;;;;29.93;12.00;;;;;;;-5.63;100.00;100330.00;5114064;28;20407;-84
2022/01/15 04:51:20;;;;;;;;;;;;;;;;;;;;;
2022/01/15 04:53:48;;;;;;;28.13;13.37;;;;;;;-5.39;100.00;100342.41;4971982;28;20054;-84
2022/01/15 04:56:17;;;;;;;35.73;13.40;;;;;;;-5.41;100.00;100343.38;5057669;28;20059;-84
2022/01/15 04:58:44;;;;;;;37.67;14.37;;;;;;;-5.37;100.00;100351.16;5129242;27;20066;-84
2022/01/15 05:01:15;;;;;;;30.37;13.30;;;;;;;-5.46;100.00;100342.69;5113986;28;20455;-84
2022/01/15 05:03:54;;;;;;;44.50;14.43;;;;;;;-5.47;100.00;100348.91;5128704;27;20312;-84
2022/01/15 05:06:23;;;;;;;29.77;14.63;;;;;;;-5.33;100.00;100362.50;5112492;28;20138;-84
2022/01/15 05:08:57;;;;;;;35.55;14.30;;;;;;;-5.33;100.00;100357.22;5125601;27;20039;-84
2022/01/15 05:11:31;;;;;;;37.97;13.37;;;;;;;-5.44;100.00;100347.00;5111407;27;20063;-84
2022/01/15 05:14:01;;;;;;;32.07;15.10;;;;;;;-5.35;100.00;100357.25;5117581;27;20058;-84
2022/01/15 05:16:40;;;;;;;36.30;14.83;;;;;;;-5.25;100.00;100370.22;5113858;28;20070;-85
2022/01/15 05:19:17;;;;;;;37.27;14.07;;;;;;;-5.36;100.00;100360.84;5114511;27;20132;-84
2022/01/15 05:21:44;;;;;;;29.53;13.63;;;;;;;-5.43;100.00;100355.84;5114008;28;20051;-84
2022/01/15 05:24:11;;;;;;;44.43;14.87;;;;;;;-5.33;100.00;100375.75;5113377;28;20051;-84
2022/01/15 05:26:41;;;;;;;49.93;14.33;;;;;;;-5.31;100.00;100360.69;5112416;28;20058;-84
2022/01/15 05:29:08;;;;;;;49.47;15.63;;;;;;;-5.37;100.00;100364.41;5108400;28;20043;-84
2022/01/15 05:31:38;;;;;;;48.50;15.33;;;;;;;-5.36;100.00;100371.47;5112670;28;20052;-84
2022/01/15 05:34:11;;;;;;;58.67;15.23;;;;;;;-5.44;100.00;100362.03;5111986;28;20047;-84
2022/01/15 05:36:53;;;;;;;45.73;13.13;;;;;;;-5.31;100.00;100383.66;5113539;28;20048;-86
2022/01/15 05:39:25;;;;;;;55.73;16.33;;;;;;;-5.43;100.00;100351.38;5110374;28;20044;-85
2022/01/15 05:41:52;;;;;;;82.93;16.63;;;;;;;-5.29;100.00;100380.03;5113500;27;20056;-85
2022/01/15 05:44:19;;;;;;;49.43;14.57;;;;;;;-5.29;100.00;100366.78;5112758;28;20387;-85
2022/01/15 05:46:46;;;;;;;72.10;17.77;;;;;;;-5.22;100.00;100380.72;5114458;27;20079;-85
2022/01/15 05:49:13;;;;;;;37.20;14.63;;;;;;;-5.22;100.00;100380.72;5112716;28;20487;-85
2022/01/15 05:51:54;;;;;;;55.27;16.80;;;;;;;-5.21;100.00;100361.22;5113241;28;20039;-85
2022/01/15 05:54:21;;;;;;;37.43;15.47;;;;;;;-5.26;100.00;100356.06;5110302;28;20540;-85
2022/01/15 05:56:50;;;;;;;45.83;16.40;;;;;;;-5.16;100.00;100356.63;5112864;28;20199;-85
2022/01/15 05:59:19;;;;;;;57.37;19.13;;;;;;;-5.11;100.00;100369.72;5112593;27;20039;-84
2022/01/15 06:01:46;;;;;;;62.95;16.42;;;;;;;-5.19;100.00;100349.63;5099612;28;20377;-84
2022/01/15 06:04:13;;;;;;;34.70;15.57;;;;;;;-5.26;100.00;100344.63;5120817;27;20103;-85
2022/01/15 06:06:58;;;;;;;46.37;16.60;;;;;;;-5.14;100.00;100344.16;5113214;27;20047;-85
2022/01/15 06:09:25;;;;;;;61.43;17.60;;;;;;;-5.05;100.00;100366.84;5120394;27;20039;-84
2022/01/15 06:11:55;;;;;;;47.30;16.63;;;;;;;-5.05;100.00;100356.22;5112334;28;20066;-84
2022/01/15 06:14:23;;;;;;;59.17;18.47;;;;;;;-5.03;100.00;100365.88;5112428;28;20048;-83
2022/01/15 06:16:53;;;;;;;57.20;17.23;;;;;;;-5.11;100.00;100362.59;5112709;28;20156;-84
2022/01/15 06:19:20;;;;;;;51.90;17.90;;;;;;;-5.02;100.00;100377.31;5111898;28;20456;-86
2022/01/15 06:21:48;;;;;;;50.13;19.53;;;;;;;-5.10;100.00;100352.84;5112217;28;20097;-85
2022/01/15 06:24:29;;;;;;;62.87;17.73;;;;;;;-5.07;100.00;100364.25;5112578;28;20051;-85
2022/01/15 06:33:06;;;;;;;51.20;17.63;;;;;;;-5.06;100.00;100352.72;5110841;28;20052;-85
2022/01/15 06:35:33;;;;;;;42.50;17.63;;;;;;;-5.14;100.00;100325.59;5113133;28;20048;-85
2022/01/15 06:38:00;;;;;;;39.70;17.13;;;;;;;-4.99;100.00;100358.66;5112549;28;20044;-85
2022/01/15 06:40:29;;;;;;;65.50;18.20;;;;;;;-4.94;100.00;100367.28;5113446;28;20047;-85
2022/01/15 06:43:00;;;;;;;58.33;18.05;;;;;;;-4.95;100.00;100339.06;5113074;28;20285;-85
2022/01/15 06:45:27;;;;;;;59.63;18.47;;;;;;;-4.89;100.00;100329.97;5112861;28;20059;-85
2022/01/15 06:47:54;;;;;;;45.13;17.43;;;;;;;-4.96;100.00;100339.97;5115046;28;20130;-85
2022/01/15 06:50:23;;;;;;;79.37;17.53;;;;;;;-4.92;100.00;100340.69;5114067;28;20051;-85
2022/01/15 06:52:50;;;;;;;39.00;15.53;;;;;;;-4.86;100.00;100327.22;5112495;28;20052;-85
2022/01/15 06:55:17;;;;;;;36.37;16.23;;;;;;;-4.90;100.00;100326.47;5114948;28;20467;-85
2022/01/15 06:57:46;;;;;;;50.00;16.80;;;;;;;-4.93;100.00;100323.06;5113469;28;20059;-85
2022/01/15 07:00:14;;;;;;;50.50;17.53;;;;;;;-4.86;100.00;100348.47;5116749;27;20043;-85
2022/01/15 07:02:42;;;;;;;53.30;16.87;;;;;;;-4.84;100.00;100347.44;5116242;28;20044;-85
2022/01/15 07:05:10;;;;;;;55.63;18.93;;;;;;;-4.96;100.00;100326.69;5116882;28;20052;-85
2022/01/15 07:07:44;;;;;;;69.87;18.67;;;;;;;-4.91;100.00;100329.19;5116376;28;20039;-85
2022/01/15 07:10:28;;;;;;;55.87;18.67;;;;;;;-4.85;100.00;100327.19;5115733;27;20162;-85
2022/01/15 07:12:57;;;;;;;90.50;19.93;;;;;;;-4.70;100.00;100343.41;5109418;28;20047;-85
2022/01/15 07:15:24;;;;;;;54.35;20.75;;;;;;;-4.86;100.00;100322.78;5120924;27;20126;-85
2022/01/15 07:17:53;;;;;;;71.27;19.33;;;;;;;-4.90;100.00;100320.31;5115536;28;20053;-85
2022/01/15 07:20:21;;;;;;;45.83;16.87;;;;;;;-4.89;100.00;100329.97;5117482;27;20055;-85
2022/01/15 07:22:48;;;;;;;70.73;17.87;;;;;;;-4.86;100.00;100327.22;5116110;27;20050;-85
2022/01/15 07:25:15;;;;;;;47.60;18.17;;;;;;;-4.90;100.00;100320.31;5115609;28;20054;-85
2022/01/15 07:27:42;;;;;;;58.20;18.33;;;;;;;-4.91;100.00;100318.56;5118345;27;20043;-85
2022/01/15 07:30:13;;;;;;;71.93;16.47;;;;;;;-4.90;100.00;100321.16;5115769;28;20043;-85
2022/01/15 07:32:42;;;;;;;136.03;21.00;;;;;;;-4.77;100.00;100333.94;5119938;27;20075;-85
2022/01/15 07:35:11;;;;;;;62.35;19.35;;;;;;;-4.80;100.00;100319.88;5115217;28;20048;-85
2022/01/15 07:37:38;;;;;;;66.73;19.87;;;;;;;-4.74;100.00;100334.72;5117797;27;20093;-85
2022/01/15 07:40:07;;;;;;;59.13;19.90;;;;;;;-4.68;100.00;100336.25;5115779;27;20482;-85
2022/01/15 07:42:36;;;;;;;67.22;17.25;;;;;;;-4.71;100.00;100323.09;5117321;27;20547;-85
2022/01/15 07:45:07;;;;;;;110.63;20.33;;;;;;;-4.56;100.00;100341.09;5119749;27;20069;-85
2022/01/15 07:47:36;;;;;;;69.80;22.30;;;;;;;-4.57;100.00;100327.88;5119223;27;20058;-85
2022/01/15 07:50:08;;;;;;;;;;;;;;;-4.42;100.00;100334.38;5095475;28;20146;-85
2022/01/15 07:52:35;;;;;;;67.83;17.57;;;;;;;-4.67;100.00;100314.09;5112723;27;19935;-85
2022/01/15 07:55:03;;;;;;;64.10;15.60;;;;;;;-4.53;100.00;100322.41;5116706;27;20051;-85
2022/01/15 07:57:33;;;;;;;90.57;19.40;;;;;;;-4.57;100.00;100333.19;5115839;28;20055;-85
2022/01/15 08:00:00;;;;;;;75.83;20.17;;;;;;;-4.48;100.00;100325.72;5115599;28;20046;-85
2022/01/15 08:02:29;;;;;;;105.13;23.17;;;;;;;-4.61;100.00;100316.50;5115065;28;20465;-85
2022/01/15 08:05:04;;;;;;;73.17;17.40;;;;;;;-4.45;100.00;100319.44;5114326;28;20036;-85
2022/01/15 08:07:34;;;;;;;78.73;19.50;;;;;;;-4.43;100.00;100328.19;5115308;27;20135;-86
2022/01/15 08:10:06;;;;;;;70.20;17.87;;;;;;;-4.48;100.00;100314.25;5124309;27;20054;-85
2022/01/15 08:15:26;;;;;;;131.30;20.93;;;;;;;-4.37;100.00;100319.13;5115887;27;20055;-84
2022/01/15 08:17:53;;;;;;;95.57;20.70;;;;;;;-4.49;100.00;100301.91;5109787;27;20047;-84
2022/01/15 08:20:22;;;;;;;76.57;18.40;;;;;;;-4.56;100.00;100321.63;5118409;27;20043;-84
2022/01/15 08:22:51;;;;;;;46.50;18.37;;;;;;;-4.54;100.00;100301.22;5113423;28;20055;-84
2022/01/15 08:25:18;;;;;;;64.03;19.02;;;;;;;-4.59;100.00;100317.34;5114443;28;20055;-84
2022/01/15 08:27:45;;;;;;;55.17;16.43;;;;;;;-4.57;100.00;100299.56;5114542;27;20333;-84
2022/01/15 08:30:13;;;;;;;60.10;16.10;;;;;;;-4.45;100.00;100314.97;5114598;28;20047;-84
2022/01/15 08:32:43;;;;;;;54.70;16.40;;;;;;;-4.46;100.00;100294.69;5114090;27;20067;-84
2022/01/15 08:35:10;;;;;;;83.13;17.85;;;;;;;-4.34;100.00;100293.31;5114061;27;20096;-84
2022/01/15 08:37:39;;;;;;;63.47;15.67;;;;;;;-4.52;100.00;100307.31;5113239;28;20047;-84
2022/01/15 08:40:08;;;;;;;69.75;19.17;;;;;;;-4.48;100.00;100293.88;5111847;28;20067;-84
2022/01/15 08:42:35;;;;;;;50.47;16.08;;;;;;;-4.28;100.00;100306.31;5118213;27;20051;-85
2022/01/15 08:45:05;;;;;;;95.43;20.70;;;;;;;-4.20;100.00;100294.53;5133646;27;20387;-85
2022/01/15 08:47:35;;;;;;;55.40;16.87;;;;;;;-4.03;100.00;100315.09;5113861;27;20048;-85
2022/01/15 08:50:02;;;;;;;69.20;17.47;;;;;;;-4.06;100.00;100310.78;5093680;28;20056;-84
2022/01/15 08:52:30;;;;;;;76.07;17.67;;;;;;;-4.26;100.00;100314.22;5113801;28;20506;-85
2022/01/15 08:55:01;;;;;;;56.43;17.90;;;;;;;-4.27;100.00;100296.59;5112402;27;20047;-84
2022/01/15 08:57:34;;;;;;;64.47;16.17;;;;;;;-4.28;100.00;100301.00;5117083;28;20593;-81
2022/01/15 09:00:01;;;;;;;41.57;17.33;;;;;;;-4.07;100.00;100298.41;5115411;28;20043;-84
2022/01/15 09:02:30;;;;;;;61.40;18.10;;;;;;;-3.84;100.00;100305.44;5113938;28;20089;-84
2022/01/15 09:04:57;;;;;;;132.30;22.35;;;;;;;-3.92;100.00;100286.28;5115608;27;20162;-84
2022/01/15 09:07:24;;;;;;;58.50;18.70;;;;;;;-4.01;100.00;100298.16;5113596;28;20039;-84
2022/01/15 09:09:53;;;;;;;67.37;19.77;;;;;;;-3.91;100.00;100303.94;5113537;28;20469;-85
2022/01/15 09:12:22;;;;;;;100.82;22.73;;;;;;;-3.74;100.00;100296.09;5111982;28;20048;-84
2022/01/15 09:14:52;;;;;;;71.50;18.20;;;;;;;-3.82;100.00;100318.66;5112915;27;20054;-84
2022/01/15 09:17:19;;;;;;;45.45;19.50;;;;;;;-3.67;100.00;100307.34;5106662;28;20056;-84
2022/01/15 09:19:46;;;;;;;56.10;18.80;;;;;;;-3.63;100.00;100303.63;5112607;28;20498;-84
2022/01/15 09:22:13;;;;;;;35.00;15.87;;;;;;;-3.78;100.00;100301.63;5112676;28;20581;-84
2022/01/15 09:24:44;;;;;;;34.17;14.80;;;;;;;-3.80;100.00;100283.09;5113607;28;20067;-85
2022/01/15 09:30:15;;;;;;;41.70;14.23;;;;;;;-3.78;100.00;100278.59;5113935;28;20066;-85
2022/01/15 09:33:12;;;;;;;42.47;14.30;;;;;;;-3.67;100.00;100302.03;5114355;28;20054;-89
2022/01/15 09:35:39;;;;;;;45.27;18.03;;;;;;;-3.52;100.00;100296.97;5113655;28;20040;-84
2022/01/15 09:38:07;;;;;;;58.27;15.83;;;;;;;-3.48;100.00;100319.84;5113765;28;20054;-83
2022/01/15 09:40:35;;;;;;;35.53;16.83;;;;;;;-3.53;100.00;100289.94;5112082;28;20039;-82
2022/01/15 09:43:33;;;;;;;77.00;16.80;;;;;;;-3.22;100.00;100300.94;5124277;27;20072;-85
2022/01/15 09:46:14;;;;;;;67.50;17.67;;;;;;;-3.30;100.00;100296.88;5112724;28;20380;-82
2022/01/15 09:48:44;;;;;;;51.60;16.77;;;;;;;-3.21;100.00;100300.00;5114442;27;20065;-83
2022/01/15 09:51:12;;;;;;;62.30;17.70;;;;;;;-3.12;100.00;100305.81;5112381;28;20109;-83
2022/01/15 09:53:39;;;;;;;61.67;18.87;;;;;;;-3.34;100.00;100282.88;5111083;27;20054;-83
2022/01/15 09:56:09;;;;;;;41.73;16.23;;;;;;;-3.25;100.00;100286.88;5112189;28;20138;-83
2022/01/15 09:58:36;;;;;;;60.00;18.57;;;;;;;-3.12;100.00;100292.53;5111357;28;20162;-83
2022/01/15 10:01:15;;;;;;;58.00;17.10;;;;;;;-3.01;100.00;100287.59;5111462;28;20094;-83
2022/01/15 10:03:42;;;;;;;76.53;19.70;;;;;;;-3.03;100.00;100290.31;5110636;28;20501;-83
2022/01/15 10:06:09;;;;;;;59.00;17.60;;;;;;;-3.05;100.00;100265.56;5111237;28;20075;-83
2022/01/15 10:08:38;;;;;;;80.80;19.10;;;;;;;-2.78;100.00;100275.84;5112299;28;20056;-83
2022/01/15 10:11:11;;;;;;;99.63;27.02;;;;;;;-2.75;100.00;100281.03;5112239;28;20067;-83
2022/01/15 10:13:50;;;;;;;71.60;18.40;;;;;;;-2.77;100.00;100261.63;5111817;28;20058;-83
2022/01/15 10:16:24;;;;;;;101.53;19.87;;;;;;;-2.74;100.00;100249.94;5107230;28;20048;-83
2022/01/15 10:18:50;;;;;;;92.57;19.47;;;;;;;-2.66;100.00;100245.13;5111988;28;20135;-83
2022/01/15 10:21:22;;;;;;;126.67;21.20;;;;;;;-2.67;100.00;100240.72;5117983;28;20054;-83
2022/01/15 10:23:52;;;;;;;78.93;18.93;;;;;;;-2.68;100.00;100246.97;5113522;28;20448;-83
2022/01/15 10:26:20;;;;;;;;;;;;;;;-2.38;100.00;100265.94;5112289;28;20055;-83
2022/01/15 10:29:00;;;;;;;84.97;18.37;;;;;;;-2.19;100.00;100259.69;5111739;28;19920;-83
2022/01/15 10:31:31;;;;;;;112.17;22.73;;;;;;;-2.18;100.00;100262.28;5118715;27;20055;-83
2022/01/15 10:34:01;;;;;;;72.20;24.37;;;;;;;-2.17;100.00;100257.81;5113637;27;20618;-82
2022/01/15 10:36:32;;;;;;;127.15;29.52;;;;;;;-2.35;100.00;100235.63;5116802;27;20055;-82
2022/01/15 10:39:16;;;;;;;86.27;23.50;;;;;;;-2.04;100.00;100263.41;5115112;27;20471;-83
2022/01/15 10:41:47;;;;;;;94.03;22.50;;;;;;;-2.02;100.00;100257.06;5117470;27;20047;-83
2022/01/15 10:44:34;;;;;;;80.60;20.73;;;;;;;-2.05;100.00;100230.53;5115485;28;20066;-83
2022/01/15 10:47:10;;;;;;;85.87;21.30;;;;;;;-2.02;100.00;100241.06;5122408;27;20051;-83
2022/01/15 10:49:52;;;;;;;82.93;21.40;;;;;;;-2.07;100.00;100239.56;5112271;28;20063;-83
2022/01/15 10:52:21;;;;;;;78.33;21.60;;;;;;;-2.13;100.00;100211.44;5122421;27;20047;-83
2022/01/15 10:54:57;;;;;;;78.07;23.90;;;;;;;-2.09;100.00;100218.34;5120096;27;20096;-83
2022/01/15 10:57:26;;;;;;;75.03;21.37;;;;;;;-2.04;100.00;100207.44;5115802;28;20120;-83
2022/01/15 11:00:25;;;;;;;59.17;21.10;;;;;;;-1.95;100.00;100198.97;5113071;27;20131;-83
2022/01/15 11:03:00;;;;;;;97.70;22.33;;;;;;;-1.74;100.00;100214.78;5112983;28;20054;-84
2022/01/15 11:05:36;;;;;;;77.43;24.47;;;;;;;-1.72;100.00;100212.88;5114265;28;20039;-84
2022/01/15 11:08:18;;;;;;;102.63;26.80;;;;;;;-1.82;100.00;100184.06;5113161;28;20127;-83
2022/01/15 11:10:54;;;;;;;67.30;22.43;;;;;;;-1.79;100.00;100183.88;5116099;28;20055;-84
2022/01/15 11:13:23;;;;;;;85.97;23.37;;;;;;;-1.71;100.00;100178.16;5114784;28;20101;-83
2022/01/15 11:15:56;;;;;;;77.38;25.02;;;;;;;-1.55;100.00;100187.97;5107754;28;20062;-83
2022/01/15 11:18:28;;;;;;;72.97;25.63;;;;;;;-1.46;100.00;100199.03;5115599;27;20051;-83
2022/01/15 11:21:02;;;;;;;76.93;22.43;;;;;;;-1.55;100.00;100180.88;5115379;28;20044;-83
2022/01/15 11:23:31;;;;;;;91.47;23.53;;;;;;;-1.50;100.00;100184.13;5116165;27;20052;-83
2022/01/15 11:26:01;;;;;;;61.75;24.77;;;;;;;-1.37;100.00;100196.78;5115381;28;20475;-83
2022/01/15 11:28:30;;;;;;;75.00;22.65;;;;;;;-1.58;100.00;100174.81;5114827;28;20139;-83
2022/01/15 11:30:59;;;;;;;87.07;23.27;;;;;;;-1.63;100.00;100165.25;5114263;28;20035;-82
2022/01/15 11:33:31;;;;;;;59.88;23.60;;;;;;;-1.48;100.00;100171.56;5114460;28;20039;-83
2022/01/15 11:35:58;;;;;;;66.50;22.33;;;;;;;-1.33;100.00;100163.69;5115388;28;20054;-82
2022/01/15 11:38:43;;;;;;;54.97;24.63;;;;;;;-1.34;100.00;100160.16;5114718;28;20056;-82
2022/01/15 11:41:41;;;;;;;60.37;23.97;;;;;;;-1.37;100.00;100160.34;5114278;27;20047;-83
2022/01/15 11:44:10;;;;;;;53.40;22.27;;;;;;;-1.32;100.00;100170.75;5101294;28;20043;-82
2022/01/15 11:46:42;;;;;;;63.63;22.98;;;;;;;-1.23;100.00;100159.56;5113171;28;20150;-82
2022/01/15 11:49:47;;;;;;;54.50;21.10;;;;;;;-1.03;100.00;100168.25;5109956;28;20084;-83
2022/01/15 11:52:43;;;;;;;77.50;22.77;;;;;;;-1.10;100.00;100149.94;5118783;27;20088;-83
2022/01/15 11:55:24;;;;;;;64.07;24.47;;;;;;;-0.93;100.00;100162.31;5114433;28;20605;-82
2022/01/15 11:57:58;;;;;;;67.43;22.60;;;;;;;-0.97;100.00;100149.22;5114249;27;20051;-83
2022/01/15 12:00:42;;;;;;;71.87;26.90;;;;;;;-0.94;100.00;100136.56;5114552;28;20047;-83
2022/01/15 12:03:13;;;;;;;73.27;24.63;;;;;;;-0.92;100.00;100125.78;5113222;27;20487;-82